sensor_id;sensor_type;location;lat;lon;timestamp;pressure;altitude;pressure_sealevel;temperature;humidity
63019;BME280;49105;46.046;10.760;2023-02-20T00:02:26;96411.00;;;3.18;67.53
63019;BME280;49105;46.046;10.760;2023-02-20T00:04:54;96400.94;;;3.21;67.57
63019;BME280;49105;46.046;10.760;2023-02-20T00:07:26;96402.91;;;3.26;67.80
63019;BME280;49105;46.046;10.760;2023-02-20T00:09:51;96413.88;;;2.96;67.89
63019;BME280;49105;46.046;10.760;2023-02-20T00:12:23;96413.28;;;2.88;68.49
63019;BME280;49105;46.046;10.760;2023-02-20T00:14:54;96400.81;;;2.96;68.03
63019;BME280;49105;46.046;10.760;2023-02-20T00:17:29;96412.88;;;2.97;67.76
63019;BME280;49105;46.046;10.760;2023-02-20T00:19:57;96408.84;;;2.95;67.77
63019;BME280;49105;46.046;10.760;2023-02-20T00:22:32;96411.28;;;2.90;68.35
63019;BME280;49105;46.046;10.760;2023-02-20T00:24:57;96407.84;;;2.89;68.27
63019;BME280;49105;46.046;10.760;2023-02-20T00:27:23;96405.41;;;3.01;67.69
63019;BME280;49105;46.046;10.760;2023-02-20T00:29:57;96411.06;;;2.91;67.69
63019;BME280;49105;46.046;10.760;2023-02-20T00:32:28;96402.22;;;2.79;68.32
63019;BME280;49105;46.046;10.760;2023-02-20T00:34:54;96399.84;;;2.84;67.69
63019;BME280;49105;46.046;10.760;2023-02-20T00:37:22;96401.84;;;2.76;68.01
63019;BME280;49105;46.046;10.760;2023-02-20T00:39:48;96399.06;;;2.64;68.03
63019;BME280;49105;46.046;10.760;2023-02-20T00:42:23;96403.69;;;2.55;68.46
63019;BME280;49105;46.046;10.760;2023-02-20T00:44:48;96398.25;;;2.50;68.55
63019;BME280;49105;46.046;10.760;2023-02-20T00:47:14;96401.09;;;2.55;68.69
63019;BME280;49105;46.046;10.760;2023-02-20T00:49:45;96400.25;;;2.55;68.47
63019;BME280;49105;46.046;10.760;2023-02-20T00:52:20;96410.31;;;2.58;68.70
63019;BME280;49105;46.046;10.760;2023-02-20T00:54:48;96406.06;;;2.63;68.94
63019;BME280;49105;46.046;10.760;2023-02-20T00:57:23;96402.25;;;2.66;68.72
63019;BME280;49105;46.046;10.760;2023-02-20T00:59:49;96415.13;;;2.54;68.19
63019;BME280;49105;46.046;10.760;2023-02-20T01:02:20;96412.53;;;2.34;69.09
63019;BME280;49105;46.046;10.760;2023-02-20T01:04:51;96410.53;;;2.43;69.10
63019;BME280;49105;46.046;10.760;2023-02-20T01:07:24;96411.13;;;2.52;68.72
63019;BME280;49105;46.046;10.760;2023-02-20T01:10:02;96412.75;;;2.53;68.75
63019;BME280;49105;46.046;10.760;2023-02-20T01:12:37;96422.38;;;2.52;68.56
63019;BME280;49105;46.046;10.760;2023-02-20T01:15:04;96426.63;;;2.27;68.31
63019;BME280;49105;46.046;10.760;2023-02-20T01:17:33;96424.78;;;2.20;69.01
63019;BME280;49105;46.046;10.760;2023-02-20T01:20:11;96427.59;;;2.26;68.94
63019;BME280;49105;46.046;10.760;2023-02-20T01:22:43;96429.03;;;2.28;68.68
63019;BME280;49105;46.046;10.760;2023-02-20T01:25:15;96425.81;;;2.33;68.62
63019;BME280;49105;46.046;10.760;2023-02-20T01:27:43;96424.81;;;2.40;68.82
63019;BME280;49105;46.046;10.760;2023-02-20T01:30:12;96435.84;;;2.42;68.26
63019;BME280;49105;46.046;10.760;2023-02-20T01:32:43;96454.13;;;2.22;69.04
63019;BME280;49105;46.046;10.760;2023-02-20T01:35:09;96448.50;;;2.19;68.59
63019;BME280;49105;46.046;10.760;2023-02-20T01:37:34;96445.47;;;2.22;69.04
63019;BME280;49105;46.046;10.760;2023-02-20T01:40:00;96442.28;;;2.27;68.77
63019;BME280;49105;46.046;10.760;2023-02-20T01:42:33;96456.94;;;2.34;68.53
63019;BME280;49105;46.046;10.760;2023-02-20T01:47:54;96459.38;;;2.36;68.18
63019;BME280;49105;46.046;10.760;2023-02-20T01:50:26;96468.38;;;2.20;68.71
63019;BME280;49105;46.046;10.760;2023-02-20T01:52:55;96467.34;;;2.01;69.00
63019;BME280;49105;46.046;10.760;2023-02-20T01:55:38;96465.31;;;1.96;69.30
63019;BME280;49105;46.046;10.760;2023-02-20T01:58:13;96463.53;;;1.90;69.24
63019;BME280;49105;46.046;10.760;2023-02-20T02:00:48;96464.31;;;1.97;69.37
63019;BME280;49105;46.046;10.760;2023-02-20T02:03:17;96473.78;;;1.98;68.79
63019;BME280;49105;46.046;10.760;2023-02-20T02:05:53;96477.38;;;1.97;69.06
63019;BME280;49105;46.046;10.760;2023-02-20T02:08:26;96473.38;;;2.02;68.72
63019;BME280;49105;46.046;10.760;2023-02-20T02:11:04;96476.59;;;2.04;68.75
63019;BME280;49105;46.046;10.760;2023-02-20T02:13:34;96479.38;;;1.95;68.90
63019;BME280;49105;46.046;10.760;2023-02-20T02:25:24;96479.38;;;1.95;68.93
63019;BME280;49105;46.046;10.760;2023-02-20T02:39:37;96494.22;;;1.88;69.15
63019;BME280;49105;46.046;10.760;2023-02-20T02:45:16;96489.03;;;2.02;69.05
63019;BME280;49105;46.046;10.760;2023-02-20T02:50:31;96493.03;;;1.97;68.79
63019;BME280;49105;46.046;10.760;2023-02-20T02:53:03;96493.88;;;2.05;68.78
63019;BME280;49105;46.046;10.760;2023-02-20T02:55:35;96484.63;;;2.02;68.88
63019;BME280;49105;46.046;10.760;2023-02-20T02:58:02;96483.78;;;1.88;69.07
63019;BME280;49105;46.046;10.760;2023-02-20T03:03:41;96487.59;;;1.92;69.13
63019;BME280;49105;46.046;10.760;2023-02-20T03:06:14;96494.25;;;1.95;68.99
63019;BME280;49105;46.046;10.760;2023-02-20T03:09:14;96503.06;;;1.87;68.65
63019;BME280;49105;46.046;10.760;2023-02-20T03:11:41;96494.59;;;1.79;68.91
63019;BME280;49105;46.046;10.760;2023-02-20T03:14:20;96489.81;;;1.82;68.93
63019;BME280;49105;46.046;10.760;2023-02-20T03:19:45;96480.38;;;1.81;69.27
63019;BME280;49105;46.046;10.760;2023-02-20T03:22:19;96486.53;;;1.67;69.10
63019;BME280;49105;46.046;10.760;2023-02-20T03:24:57;96493.03;;;1.43;69.65
63019;BME280;49105;46.046;10.760;2023-02-20T03:27:29;96493.38;;;1.27;69.87
63019;BME280;49105;46.046;10.760;2023-02-20T03:30:05;96492.38;;;1.28;70.10
63019;BME280;49105;46.046;10.760;2023-02-20T03:32:35;96485.97;;;1.30;69.75
63019;BME280;49105;46.046;10.760;2023-02-20T03:35:23;96499.84;;;1.37;69.67
63019;BME280;49105;46.046;10.760;2023-02-20T03:38:09;96498.91;;;1.52;69.44
63019;BME280;49105;46.046;10.760;2023-02-20T03:40:55;96493.53;;;1.60;69.26
63019;BME280;49105;46.046;10.760;2023-02-20T03:43:44;96498.53;;;1.55;69.72
63019;BME280;49105;46.046;10.760;2023-02-20T03:46:19;96509.38;;;1.58;69.14
63019;BME280;49105;46.046;10.760;2023-02-20T03:48:57;96519.22;;;1.63;69.67
63019;BME280;49105;46.046;10.760;2023-02-20T03:51:30;96516.03;;;1.67;69.60
63019;BME280;49105;46.046;10.760;2023-02-20T03:54:36;96516.50;;;1.78;68.92
63019;BME280;49105;46.046;10.760;2023-02-20T03:57:06;96502.66;;;1.84;68.82
63019;BME280;49105;46.046;10.760;2023-02-20T03:59:56;96509.28;;;1.86;68.96
63019;BME280;49105;46.046;10.760;2023-02-20T04:02:28;96514.72;;;1.91;69.05
63019;BME280;49105;46.046;10.760;2023-02-20T04:05:19;96522.28;;;1.73;68.98
63019;BME280;49105;46.046;10.760;2023-02-20T04:08:09;96542.28;;;1.53;69.30
63019;BME280;49105;46.046;10.760;2023-02-20T04:10:59;96541.81;;;1.42;69.72
63019;BME280;49105;46.046;10.760;2023-02-20T04:13:25;96534.34;;;1.39;70.13
63019;BME280;49105;46.046;10.760;2023-02-20T04:16:00;96534.56;;;1.38;70.26
63019;BME280;49105;46.046;10.760;2023-02-20T04:18:29;96540.72;;;1.30;70.08
63019;BME280;49105;46.046;10.760;2023-02-20T04:20:56;96538.91;;;1.24;70.16
63019;BME280;49105;46.046;10.760;2023-02-20T04:23:36;96547.69;;;1.23;70.10
63019;BME280;49105;46.046;10.760;2023-02-20T04:26:19;96545.66;;;1.18;70.06
63019;BME280;49105;46.046;10.760;2023-02-20T04:28:51;96548.09;;;1.20;69.98
63019;BME280;49105;46.046;10.760;2023-02-20T04:31:25;96555.94;;;1.27;69.84
63019;BME280;49105;46.046;10.760;2023-02-20T04:33:57;96546.56;;;1.32;69.88
63019;BME280;49105;46.046;10.760;2023-02-20T04:36:24;96561.59;;;1.30;69.91
63019;BME280;49105;46.046;10.760;2023-02-20T04:38:49;96554.56;;;1.31;69.93
63019;BME280;49105;46.046;10.760;2023-02-20T04:41:21;96549.78;;;1.34;69.68
63019;BME280;49105;46.046;10.760;2023-02-20T04:43:52;96545.00;;;1.38;69.95
63019;BME280;49105;46.046;10.760;2023-02-20T04:46:38;96551.53;;;1.27;69.60
63019;BME280;49105;46.046;10.760;2023-02-20T04:49:06;96548.84;;;1.14;69.91
63019;BME280;49105;46.046;10.760;2023-02-20T04:51:32;96557.03;;;1.11;70.22
63019;BME280;49105;46.046;10.760;2023-02-20T04:54:07;96559.06;;;1.09;70.25
63019;BME280;49105;46.046;10.760;2023-02-20T04:56:41;96562.88;;;1.13;70.35
63019;BME280;49105;46.046;10.760;2023-02-20T04:59:06;96556.31;;;1.17;69.96
63019;BME280;49105;46.046;10.760;2023-02-20T05:01:44;96567.72;;;1.16;70.36
63019;BME280;49105;46.046;10.760;2023-02-20T05:04:15;96556.50;;;1.15;69.69
63019;BME280;49105;46.046;10.760;2023-02-20T05:06:48;96557.72;;;1.19;70.10
63019;BME280;49105;46.046;10.760;2023-02-20T05:09:20;96554.72;;;1.22;69.85
63019;BME280;49105;46.046;10.760;2023-02-20T05:11:52;96563.19;;;1.24;69.68
63019;BME280;49105;46.046;10.760;2023-02-20T05:14:18;96566.59;;;1.25;69.67
63019;BME280;49105;46.046;10.760;2023-02-20T05:16:44;96564.56;;;1.27;69.97
63019;BME280;49105;46.046;10.760;2023-02-20T05:19:18;96570.19;;;1.24;69.68
63019;BME280;49105;46.046;10.760;2023-02-20T05:21:44;96570.38;;;1.22;70.04
63019;BME280;49105;46.046;10.760;2023-02-20T05:24:29;96581.38;;;1.18;69.98
63019;BME280;49105;46.046;10.760;2023-02-20T05:26:56;96574.91;;;1.14;69.87
63019;BME280;49105;46.046;10.760;2023-02-20T05:29:22;96579.09;;;1.08;69.80
63019;BME280;49105;46.046;10.760;2023-02-20T05:35:10;96585.69;;;1.04;69.87
63019;BME280;49105;46.046;10.760;2023-02-20T05:37:41;96585.50;;;1.06;70.00
63019;BME280;49105;46.046;10.760;2023-02-20T05:40:16;96590.47;;;1.01;69.78
63019;BME280;49105;46.046;10.760;2023-02-20T05:42:48;96603.50;;;1.01;70.30
63019;BME280;49105;46.046;10.760;2023-02-20T05:45:23;96602.13;;;1.05;70.31
63019;BME280;49105;46.046;10.760;2023-02-20T05:47:51;96591.72;;;1.05;69.68
63019;BME280;49105;46.046;10.760;2023-02-20T05:50:26;96601.34;;;1.04;69.53
63019;BME280;49105;46.046;10.760;2023-02-20T05:52:51;96604.94;;;1.03;69.72
63019;BME280;49105;46.046;10.760;2023-02-20T05:55:23;96596.13;;;1.04;69.72
63019;BME280;49105;46.046;10.760;2023-02-20T05:57:58;96612.00;;;1.09;70.46
63019;BME280;49105;46.046;10.760;2023-02-20T06:00:24;96607.00;;;1.14;69.63
63019;BME280;49105;46.046;10.760;2023-02-20T06:02:59;96610.56;;;1.07;69.75
63019;BME280;49105;46.046;10.760;2023-02-20T06:05:30;96619.47;;;0.91;70.42
63019;BME280;49105;46.046;10.760;2023-02-20T06:08:03;96616.44;;;0.87;70.38
63019;BME280;49105;46.046;10.760;2023-02-20T06:10:29;96619.06;;;0.94;70.26
63019;BME280;49105;46.046;10.760;2023-02-20T06:12:57;96630.94;;;0.96;70.24
63019;BME280;49105;46.046;10.760;2023-02-20T06:15:23;96630.38;;;1.01;70.54
63019;BME280;49105;46.046;10.760;2023-02-20T06:17:48;96631.41;;;1.07;70.20
63019;BME280;49105;46.046;10.760;2023-02-20T06:20:23;96641.84;;;1.07;70.11
63019;BME280;49105;46.046;10.760;2023-02-20T06:22:57;96650.28;;;1.09;70.03
63019;BME280;49105;46.046;10.760;2023-02-20T06:25:23;96654.34;;;1.11;69.83
63019;BME280;49105;46.046;10.760;2023-02-20T06:27:48;96659.28;;;1.06;69.79
63019;BME280;49105;46.046;10.760;2023-02-20T06:30:14;96667.53;;;1.10;70.37
63019;BME280;49105;46.046;10.760;2023-02-20T06:32:40;96676.38;;;1.09;69.98
63019;BME280;49105;46.046;10.760;2023-02-20T06:35:05;96679.91;;;1.01;70.65
63019;BME280;49105;46.046;10.760;2023-02-20T06:37:37;96691.13;;;1.02;69.98
63019;BME280;49105;46.046;10.760;2023-02-20T06:40:04;96680.34;;;1.05;70.45
63019;BME280;49105;46.046;10.760;2023-02-20T06:42:33;96673.53;;;1.04;70.17
63019;BME280;49105;46.046;10.760;2023-02-20T06:45:08;96681.66;;;1.15;69.83
63019;BME280;49105;46.046;10.760;2023-02-20T06:47:35;96688.50;;;1.23;69.77
63019;BME280;49105;46.046;10.760;2023-02-20T06:50:01;96691.00;;;1.31;70.13
63019;BME280;49105;46.046;10.760;2023-02-20T06:52:32;96684.84;;;1.39;69.66
63019;BME280;49105;46.046;10.760;2023-02-20T06:55:04;96693.03;;;1.36;69.72
63019;BME280;49105;46.046;10.760;2023-02-20T06:57:36;96696.91;;;1.18;70.06
63019;BME280;49105;46.046;10.760;2023-02-20T07:00:03;96707.56;;;1.02;69.89
63019;BME280;49105;46.046;10.760;2023-02-20T07:02:40;96707.97;;;0.99;70.16
63019;BME280;49105;46.046;10.760;2023-02-20T07:05:15;96699.38;;;1.05;70.86
63019;BME280;49105;46.046;10.760;2023-02-20T07:11:02;96702.50;;;1.15;70.05
63019;BME280;49105;46.046;10.760;2023-02-20T07:13:37;96711.13;;;1.16;70.22
63019;BME280;49105;46.046;10.760;2023-02-20T07:16:15;96712.53;;;1.18;70.03
63019;BME280;49105;46.046;10.760;2023-02-20T07:18:50;96704.59;;;1.27;70.46
63019;BME280;49105;46.046;10.760;2023-02-20T07:21:18;96707.88;;;1.35;70.51
63019;BME280;49105;46.046;10.760;2023-02-20T07:23:50;96710.75;;;1.40;69.89
63019;BME280;49105;46.046;10.760;2023-02-20T07:26:27;96706.56;;;1.46;70.08
63019;BME280;49105;46.046;10.760;2023-02-20T07:28:59;96696.81;;;1.55;69.75
63019;BME280;49105;46.046;10.760;2023-02-20T07:31:34;96701.31;;;1.67;69.83
63019;BME280;49105;46.046;10.760;2023-02-20T07:34:05;96698.53;;;1.69;69.80
63019;BME280;49105;46.046;10.760;2023-02-20T07:36:33;96702.09;;;1.61;70.08
63019;BME280;49105;46.046;10.760;2023-02-20T07:39:02;96698.84;;;1.59;70.09
63019;BME280;49105;46.046;10.760;2023-02-20T07:41:36;96700.03;;;1.57;70.13
63019;BME280;49105;46.046;10.760;2023-02-20T07:44:08;96699.78;;;1.52;70.07
63019;BME280;49105;46.046;10.760;2023-02-20T07:46:34;96707.25;;;1.55;70.78
63019;BME280;49105;46.046;10.760;2023-02-20T07:49:01;96705.72;;;1.67;70.23
63019;BME280;49105;46.046;10.760;2023-02-20T07:51:27;96704.19;;;1.79;69.77
63019;BME280;49105;46.046;10.760;2023-02-20T07:53:58;96709.50;;;1.92;70.03
63019;BME280;49105;46.046;10.760;2023-02-20T07:56:24;96711.16;;;2.00;69.29
63019;BME280;49105;46.046;10.760;2023-02-20T07:58:50;96708.75;;;1.98;69.41
63019;BME280;49105;46.046;10.760;2023-02-20T08:01:24;96705.34;;;2.05;69.39
63019;BME280;49105;46.046;10.760;2023-02-20T08:04:02;96714.41;;;2.09;69.68
63019;BME280;49105;46.046;10.760;2023-02-20T08:06:30;96720.84;;;2.06;69.67
63019;BME280;49105;46.046;10.760;2023-02-20T08:09:08;96707.81;;;2.13;69.61
63019;BME280;49105;46.046;10.760;2023-02-20T08:11:35;96701.03;;;2.18;69.90
63019;BME280;49105;46.046;10.760;2023-02-20T08:14:02;96702.06;;;2.24;69.47
63019;BME280;49105;46.046;10.760;2023-02-20T08:16:34;96702.69;;;2.33;69.87
63019;BME280;49105;46.046;10.760;2023-02-20T08:19:09;96705.94;;;2.41;69.40
63019;BME280;49105;46.046;10.760;2023-02-20T08:21:37;96696.53;;;2.47;69.24
63019;BME280;49105;46.046;10.760;2023-02-20T08:24:05;96693.94;;;2.54;69.57
63019;BME280;49105;46.046;10.760;2023-02-20T08:26:44;96692.13;;;2.54;69.28
63019;BME280;49105;46.046;10.760;2023-02-20T08:29:19;96692.53;;;2.51;69.49
63019;BME280;49105;46.046;10.760;2023-02-20T08:31:54;96689.94;;;2.51;69.86
63019;BME280;49105;46.046;10.760;2023-02-20T08:34:32;96686.94;;;2.61;69.66
63019;BME280;49105;46.046;10.760;2023-02-20T08:36:57;96688.38;;;2.70;69.19
63019;BME280;49105;46.046;10.760;2023-02-20T08:39:23;96684.56;;;2.79;69.24
63019;BME280;49105;46.046;10.760;2023-02-20T08:41:54;96680.97;;;2.87;69.33
63019;BME280;49105;46.046;10.760;2023-02-20T08:47:48;96676.41;;;3.09;68.96
63019;BME280;49105;46.046;10.760;2023-02-20T08:50:22;96666.94;;;3.14;68.87
63019;BME280;49105;46.046;10.760;2023-02-20T08:52:54;96667.75;;;3.21;68.93
63019;BME280;49105;46.046;10.760;2023-02-20T08:55:19;96669.34;;;3.29;68.92
63019;BME280;49105;46.046;10.760;2023-02-20T08:57:45;96664.13;;;3.36;68.87
63019;BME280;49105;46.046;10.760;2023-02-20T09:00:17;96661.91;;;3.39;68.81
63019;BME280;49105;46.046;10.760;2023-02-20T09:02:52;96660.09;;;3.46;68.65
63019;BME280;49105;46.046;10.760;2023-02-20T09:05:23;96655.06;;;3.45;68.64
63019;BME280;49105;46.046;10.760;2023-02-20T09:07:58;96660.50;;;3.43;68.95
63019;BME280;49105;46.046;10.760;2023-02-20T09:10:32;96654.88;;;3.46;68.89
63019;BME280;49105;46.046;10.760;2023-02-20T09:13:08;96646.59;;;3.49;68.78
63019;BME280;49105;46.046;10.760;2023-02-20T09:15:42;96646.81;;;3.55;68.91
63019;BME280;49105;46.046;10.760;2023-02-20T09:18:17;96637.13;;;3.62;69.09
63019;BME280;49105;46.046;10.760;2023-02-20T09:20:43;96643.94;;;3.69;68.77
63019;BME280;49105;46.046;10.760;2023-02-20T09:23:14;96639.94;;;3.67;68.80
63019;BME280;49105;46.046;10.760;2023-02-20T09:25:49;96645.97;;;3.74;68.66
63019;BME280;49105;46.046;10.760;2023-02-20T09:28:18;96643.75;;;3.78;68.58
63019;BME280;49105;46.046;10.760;2023-02-20T09:30:44;96644.97;;;3.75;68.48
63019;BME280;49105;46.046;10.760;2023-02-20T09:33:09;96641.34;;;3.76;68.56
63019;BME280;49105;46.046;10.760;2023-02-20T09:35:44;96637.09;;;3.82;68.47
63019;BME280;49105;46.046;10.760;2023-02-20T09:38:15;96631.66;;;3.83;68.50
63019;BME280;49105;46.046;10.760;2023-02-20T09:40:41;96638.69;;;3.89;68.40
63019;BME280;49105;46.046;10.760;2023-02-20T09:44:01;96636.25;;;3.94;68.13
63019;BME280;49105;46.046;10.760;2023-02-20T09:46:21;96638.25;;;3.99;68.13
63019;BME280;49105;46.046;10.760;2023-02-20T09:51:40;96631.75;;;4.15;67.96
63019;BME280;49105;46.046;10.760;2023-02-20T09:56:48;96631.69;;;4.35;67.73
63019;BME280;49105;46.046;10.760;2023-02-20T10:02:28;96637.91;;;4.40;67.66
63019;BME280;49105;46.046;10.760;2023-02-20T10:04:56;96631.41;;;4.50;67.21
63019;BME280;49105;46.046;10.760;2023-02-20T10:07:38;96631.19;;;4.58;67.12
63019;BME280;49105;46.046;10.760;2023-02-20T10:10:28;96637.56;;;4.68;67.11
63019;BME280;49105;46.046;10.760;2023-02-20T10:30:28;96646.34;;;4.81;67.41
63019;BME280;49105;46.046;10.760;2023-02-20T10:35:33;96651.50;;;5.01;66.70
63019;BME280;49105;46.046;10.760;2023-02-20T10:38:06;96656.91;;;5.06;67.02
63019;BME280;49105;46.046;10.760;2023-02-20T10:40:50;96654.13;;;5.01;66.76
63019;BME280;49105;46.046;10.760;2023-02-20T10:43:42;96655.78;;;4.95;66.50
63019;BME280;49105;46.046;10.760;2023-02-20T10:46:29;96658.78;;;4.98;66.46
63019;BME280;49105;46.046;10.760;2023-02-20T10:48:59;96657.50;;;5.08;66.39
63019;BME280;49105;46.046;10.760;2023-02-20T10:51:40;96654.63;;;5.16;66.84
63019;BME280;49105;46.046;10.760;2023-02-20T10:54:13;96644.09;;;5.22;66.56
63019;BME280;49105;46.046;10.760;2023-02-20T10:59:23;96651.41;;;5.39;66.44
63019;BME280;49105;46.046;10.760;2023-02-20T11:01:58;96652.75;;;5.48;66.08
63019;BME280;49105;46.046;10.760;2023-02-20T11:04:36;96642.97;;;5.55;66.05
63019;BME280;49105;46.046;10.760;2023-02-20T11:07:13;96638.47;;;5.62;65.79
63019;BME280;49105;46.046;10.760;2023-02-20T11:09:45;96635.22;;;5.67;66.14
63019;BME280;49105;46.046;10.760;2023-02-20T11:12:21;96637.56;;;5.75;65.74
63019;BME280;49105;46.046;10.760;2023-02-20T11:14:49;96639.53;;;5.80;65.93
63019;BME280;49105;46.046;10.760;2023-02-20T11:17:20;96628.72;;;5.88;65.94
63019;BME280;49105;46.046;10.760;2023-02-20T11:19:57;96625.06;;;5.95;65.55
63019;BME280;49105;46.046;10.760;2023-02-20T11:22:42;96630.53;;;6.12;65.60
63019;BME280;49105;46.046;10.760;2023-02-20T11:25:25;96621.25;;;6.28;65.18
63019;BME280;49105;46.046;10.760;2023-02-20T11:27:54;96609.56;;;6.42;65.01
63019;BME280;49105;46.046;10.760;2023-02-20T11:30:33;96609.25;;;6.51;64.97
63019;BME280;49105;46.046;10.760;2023-02-20T11:33:10;96606.88;;;6.61;64.68
63019;BME280;49105;46.046;10.760;2023-02-20T11:36:13;96600.88;;;6.72;64.75
63019;BME280;49105;46.046;10.760;2023-02-20T11:39:01;96592.09;;;6.90;64.77
63019;BME280;49105;46.046;10.760;2023-02-20T11:41:35;96586.63;;;7.03;64.48
63019;BME280;49105;46.046;10.760;2023-02-20T11:47:27;96565.94;;;7.30;64.07
63019;BME280;49105;46.046;10.760;2023-02-20T11:50:20;96567.91;;;7.46;64.03
63019;BME280;49105;46.046;10.760;2023-02-20T11:53:03;96567.31;;;7.56;63.79
63019;BME280;49105;46.046;10.760;2023-02-20T11:55:30;96567.88;;;7.70;63.47
63019;BME280;49105;46.046;10.760;2023-02-20T12:01:28;96560.59;;;8.01;63.45
63019;BME280;49105;46.046;10.760;2023-02-20T12:04:18;96555.44;;;8.06;62.81
63019;BME280;49105;46.046;10.760;2023-02-20T12:06:43;96543.63;;;8.08;62.77
63019;BME280;49105;46.046;10.760;2023-02-20T12:09:18;96550.13;;;8.17;62.92
63019;BME280;49105;46.046;10.760;2023-02-20T12:11:53;96532.56;;;8.23;62.36
63019;BME280;49105;46.046;10.760;2023-02-20T12:14:28;96527.41;;;8.28;62.23
63019;BME280;49105;46.046;10.760;2023-02-20T12:20:02;96516.03;;;8.28;61.71
63019;BME280;49105;46.046;10.760;2023-02-20T12:22:34;96519.00;;;8.31;62.20
63019;BME280;49105;46.046;10.760;2023-02-20T12:36:34;96461.19;;;8.58;60.86
63019;BME280;49105;46.046;10.760;2023-02-20T12:49:53;96422.69;;;8.96;60.83
63019;BME280;49105;46.046;10.760;2023-02-20T12:52:44;96410.28;;;8.97;59.99
63019;BME280;49105;46.046;10.760;2023-02-20T13:01:00;96397.78;;;9.09;59.39
63019;BME280;49105;46.046;10.760;2023-02-20T13:03:48;96384.69;;;9.14;59.11
63019;BME280;49105;46.046;10.760;2023-02-20T13:06:26;96378.47;;;9.25;59.37
63019;BME280;49105;46.046;10.760;2023-02-20T13:11:41;96365.69;;;9.39;59.27
63019;BME280;49105;46.046;10.760;2023-02-20T13:14:16;96369.69;;;9.41;58.94
63019;BME280;49105;46.046;10.760;2023-02-20T13:22:21;96363.91;;;9.44;57.75
63019;BME280;49105;46.046;10.760;2023-02-20T13:24:52;96365.56;;;9.51;57.47
63019;BME280;49105;46.046;10.760;2023-02-20T13:27:39;96352.41;;;9.56;57.19
63019;BME280;49105;46.046;10.760;2023-02-20T13:30:22;96337.44;;;9.66;56.73
63019;BME280;49105;46.046;10.760;2023-02-20T13:33:11;96330.41;;;9.77;56.88
63019;BME280;49105;46.046;10.760;2023-02-20T13:38:40;96329.47;;;9.88;56.41
63019;BME280;49105;46.046;10.760;2023-02-20T13:41:07;96323.44;;;9.93;55.89
63019;BME280;49105;46.046;10.760;2023-02-20T13:43:39;96308.41;;;9.99;56.03
63019;BME280;49105;46.046;10.760;2023-02-20T13:48:56;96293.38;;;10.04;55.96
63019;BME280;49105;46.046;10.760;2023-02-20T13:54:14;96293.38;;;10.04;54.88
63019;BME280;49105;46.046;10.760;2023-02-20T13:56:52;96286.28;;;10.10;55.02
63019;BME280;49105;46.046;10.760;2023-02-20T13:59:24;96279.16;;;10.15;55.12
63019;BME280;49105;46.046;10.760;2023-02-20T14:02:18;96279.22;;;10.21;55.27
63019;BME280;49105;46.046;10.760;2023-02-20T14:07:33;96278.03;;;10.33;54.78
63019;BME280;49105;46.046;10.760;2023-02-20T14:10:16;96274.84;;;10.36;54.34
63019;BME280;49105;46.046;10.760;2023-02-20T14:15:23;96265.34;;;10.40;54.81
63019;BME280;49105;46.046;10.760;2023-02-20T14:17:55;96268.84;;;10.46;54.60
63019;BME280;49105;46.046;10.760;2023-02-20T14:20:36;96266.47;;;10.50;53.88
63019;BME280;49105;46.046;10.760;2023-02-20T14:23:17;96275.41;;;10.43;54.10
63019;BME280;49105;46.046;10.760;2023-02-20T14:26:04;96270.88;;;10.34;54.25
63019;BME280;49105;46.046;10.760;2023-02-20T14:28:33;96265.81;;;10.32;54.53
63019;BME280;49105;46.046;10.760;2023-02-20T14:33:51;96259.50;;;10.33;54.92
63019;BME280;49105;46.046;10.760;2023-02-20T14:42:24;96241.50;;;10.35;54.39
63019;BME280;49105;46.046;10.760;2023-02-20T14:45:05;96242.28;;;10.36;54.63
63019;BME280;49105;46.046;10.760;2023-02-20T14:47:31;96238.63;;;10.37;54.25
63019;BME280;49105;46.046;10.760;2023-02-20T14:50:35;96242.59;;;10.39;54.14
63019;BME280;49105;46.046;10.760;2023-02-20T14:53:12;96241.50;;;10.35;54.32
63019;BME280;49105;46.046;10.760;2023-02-20T14:55:50;96250.22;;;10.31;54.59
63019;BME280;49105;46.046;10.760;2023-02-20T14:58:20;96235.91;;;10.32;54.56
63019;BME280;49105;46.046;10.760;2023-02-20T15:00:52;96243.84;;;10.32;54.61
63019;BME280;49105;46.046;10.760;2023-02-20T15:03:28;96240.19;;;10.33;53.98
63019;BME280;49105;46.046;10.760;2023-02-20T15:06:01;96245.41;;;10.28;54.55
63019;BME280;49105;46.046;10.760;2023-02-20T15:08:35;96247.72;;;10.19;54.50
63019;BME280;49105;46.046;10.760;2023-02-20T15:11:10;96244.50;;;10.12;54.68
63019;BME280;49105;46.046;10.760;2023-02-20T15:13:44;96241.84;;;10.12;54.33
63019;BME280;49105;46.046;10.760;2023-02-20T15:16:38;96242.94;;;10.16;54.06
63019;BME280;49105;46.046;10.760;2023-02-20T15:19:20;96231.84;;;10.19;54.27
63019;BME280;49105;46.046;10.760;2023-02-20T15:21:57;96236.34;;;10.18;54.10
63019;BME280;49105;46.046;10.760;2023-02-20T15:24:38;96243.75;;;10.16;54.12
63019;BME280;49105;46.046;10.760;2023-02-20T15:27:09;96240.81;;;10.13;53.96
63019;BME280;49105;46.046;10.760;2023-02-20T15:29:45;96246.88;;;10.08;54.63
63019;BME280;49105;46.046;10.760;2023-02-20T15:32:18;96250.03;;;10.10;54.05
63019;BME280;49105;46.046;10.760;2023-02-20T15:34:53;96247.06;;;10.02;54.45
63019;BME280;49105;46.046;10.760;2023-02-20T15:37:32;96242.78;;;9.95;55.01
63019;BME280;49105;46.046;10.760;2023-02-20T15:40:18;96241.44;;;9.88;55.01
63019;BME280;49105;46.046;10.760;2023-02-20T15:42:45;96245.53;;;9.74;54.49
63019;BME280;49105;46.046;10.760;2023-02-20T15:45:29;96246.75;;;9.61;55.25
63019;BME280;49105;46.046;10.760;2023-02-20T15:48:00;96256.19;;;9.52;55.16
63019;BME280;49105;46.046;10.760;2023-02-20T15:50:26;96260.31;;;9.42;55.66
63019;BME280;49105;46.046;10.760;2023-02-20T15:52:52;96263.47;;;9.39;54.97
63019;BME280;49105;46.046;10.760;2023-02-20T15:55:29;96267.66;;;9.35;54.93
63019;BME280;49105;46.046;10.760;2023-02-20T15:57:57;96260.78;;;9.34;55.25
63019;BME280;49105;46.046;10.760;2023-02-20T16:00:24;96269.94;;;9.27;55.74